FW9836 Weather Reports


Display with metric or nautical units.
time (UTC)temp
F
wind
direction
speed
MPH
gust
MPH
rain 1hr
in
rain 24hr
in
rain mn
in
humidity
%
barometer
mb
20211208221327 22 68 3.0 8.0 0.00 0.00 0.00 87 1019.0
20211208220328 22 83 2.0 5.0 0.00 0.00 0.00 88 1019.0
20211208215329 22 194 0.0 1.0 0.00 0.00 0.00 87 1019.1
20211208214329 22 12 3.0 6.0 0.00 0.00 0.00 88 1019.1
20211208213329 22 58 2.0 3.0 0.00 0.00 0.00 88 1018.9
20211208212329 22 92 2.0 4.0 0.00 0.00 0.00 89 1019.2
20211208211427 22 36 3.0 7.0 0.00 0.00 0.00 88 1019.6
20211208210428 22 31 3.0 6.0 0.00 0.00 0.00 89 1019.7
20211208205428 22 90 2.0 4.0 0.00 0.00 0.00 88 1019.8
20211208204428 22 80 1.0 6.0 0.00 0.00 0.00 88 1019.7
20211208203428 22 55 4.0 9.0 0.00 0.00 0.00 87 1020.0
20211208202527 22 38 3.0 5.0 0.00 0.00 0.00 88 1020.0
20211208201530 22 10 2.0 5.0 0.00 0.00 0.00 87 1020.2
20211208200529 22 40 0.0 2.0 0.00 0.00 0.00 88 1020.4
20211208195627 22 56 1.0 4.0 0.00 0.00 0.00 87 1020.5
20211208194727 22 53 2.0 4.0 0.00 0.00 0.00 85 1020.4
20211208193729 22 50 3.0 4.0 0.00 0.00 0.00 83 1020.4
20211208192828 23 45 3.0 6.0 0.00 0.00 0.00 81 1020.4
20211208191928 23 30 1.0 4.0 0.00 0.00 0.00 79 1020.8
20211208190944 23 29 3.0 5.0 0.00 0.00 0.00 78 1020.9
20211208190031 23 71 0.0 2.0 0.00 0.00 0.00 78 1020.9
20211208185127 23 68 3.0 6.0 0.00 0.00 0.00 78 1021.0
20211208184129 23 35 1.0 4.0 0.00 0.00 0.00 79 1020.9
20211208183227 23 87 3.0 6.0 0.00 0.00 0.00 79 1021.1
20211208182228 24 24 2.0 6.0 0.00 0.00 0.00 78 1021.2
20211208181229 23 149 1.0 3.0 0.00 0.00 0.00 76 1021.4
20211208180327 24 135 1.0 3.0 0.00 0.00 0.00 74 1021.6
20211208175329 24 134 2.0 3.0 0.00 0.00 0.00 70 1021.7
20211208174428 25 101 3.0 7.0 0.00 0.00 0.00 68 1021.8
20211208173427 25 40 4.0 7.0 0.00 0.00 0.00 65 1022.0
20211208172428 25 85 1.0 4.0 0.00 0.00 0.00 66 1022.1
20211208171428 25 175 2.0 5.0 0.00 0.00 0.00 65 1022.5
20211208170427 25 142 1.0 2.0 0.00 0.00 0.00 63 1022.4
20211208165428 26 184 1.0 3.0 0.00 0.00 0.00 57 1022.4
20211208164428 26 75 2.0 4.0 0.00 0.00 0.00 54 1022.5
20211208163527 26 1 1.0 3.0 0.00 0.00 0.00 54 1022.6
20211208162528 26 90 3.0 5.0 0.00 0.00 0.00 52 1022.5
20211208161531 26 59 4.0 6.0 0.00 0.00 0.00 52 1022.9
20211208160629 26 119 1.0 6.0 0.00 0.00 0.00 53 1023.0
20211208155628 26 114 1.0 2.0 0.00 0.00 0.00 52 1023.2
20211208154629 26 76 3.0 6.0 0.00 0.00 0.00 52 1023.4
20211208153727 26 180 0.0 1.0 0.00 0.00 0.00 53 1023.8
20211208152729 26 97 2.0 5.0 0.00 0.00 0.00 53 1023.8
20211208151727 26 196 2.0 4.0 0.00 0.00 0.00 53 1024.0
20211208150728 26 35 1.0 4.0 0.00 0.00 0.00 57 1024.2
20211208145729 25 111 1.0 4.0 0.00 0.00 0.00 59 1024.4
20211208144827 25 20 3.0 6.0 0.00 0.00 0.00 61 1024.7
20211208143828 25 1 1.0 2.0 0.00 0.00 0.00 62 1024.7
20211208142831 25 92 2.0 4.0 0.00 0.00 0.00 63 1024.6
20211208141830 25 110 0.0 3.0 0.00 0.00 0.00 65 1024.7
20211208140829 25 101 1.0 4.0 0.00 0.00 0.00 64 1024.5
20211208135829 25 47 1.0 3.0 0.00 0.00 0.00 64 1024.8
20211208134828 25 10 2.0 6.0 0.00 0.00 0.00 64 1024.5
20211208133828 25 45 0.0 1.0 0.00 0.00 0.00 63 1024.6
20211208132828 24 4 0.0 2.0 0.00 0.00 0.00 64 1024.7
20211208131829 24 22 0.0 0.0 0.00 0.00 0.00 64 1024.4
20211208130828 24 360 0.0 2.0 0.00 0.00 0.00 63 1024.1
20211208125829 24 360 0.0 1.0 0.00 0.00 0.00 64 1024.2
20211208124828 24 11 0.0 1.0 0.00 0.00 0.00 64 1024.3
20211208123927 24 22 0.0 2.0 0.00 0.00 0.00 64 1024.3
20211208122928 24 1 2.0 2.0 0.00 0.00 0.00 65 1024.4
20211208121928 24 59 1.0 5.0 0.00 0.00 0.00 65 1024.2
20211208120930 24 93 0.0 3.0 0.00 0.00 0.00 64 1024.2
20211208115929 24 22 1.0 3.0 0.00 0.00 0.00 65 1024.5
20211208115028 24 22 1.0 2.0 0.00 0.00 0.00 64 1024.4
20211208114029 24 19 0.0 2.0 0.00 0.00 0.00 65 1024.3
20211208113030 24 88 1.0 3.0 0.00 0.00 0.00 65 1024.3
20211208112127 24 22 0.0 1.0 0.00 0.00 0.00 64 1024.0
20211208111127 25 360 0.0 3.0 0.00 0.00 0.00 65 1023.9
20211208110129 25 22 0.0 1.0 0.00 0.00 0.00 65 1023.8
20211208105129 25 22 0.0 0.0 0.00 0.00 0.00 68 1023.5
20211208104129 25 6 0.0 0.0 0.00 0.00 0.00 69 1023.8
20211208103128 25 270 0.0 1.0 0.00 0.00 0.00 67 1023.5
20211208103029 25 270 0.0 1.0 0.00 0.00 0.00 68 1023.4
20211208102030 25 337 0.0 2.0 0.00 0.00 0.00 71 1023.3
20211208101027 24 360 1.0 2.0 0.00 0.00 0.00 72 1023.4
20211208100028 24 22 0.0 1.0 0.00 0.00 0.00 73 1023.4
20211208095045 24 360 0.0 1.0 0.00 0.00 0.00 74 1023.4
20211208094027 24 360 0.0 0.0 0.00 0.00 0.00 75 1023.3
20211208093029 24 360 0.0 0.0 0.00 0.00 0.00 72 1023.4
20211208092029 24 360 0.0 0.0 0.00 0.00 0.00 72 1023.4
20211208091029 24 360 0.0 0.0 0.00 0.00 0.00 71 1023.5
20211208090128 24 360 0.0 0.0 0.00 0.00 0.00 71 1023.5
20211208085129 24 360 0.0 0.0 0.00 0.00 0.00 77 1023.5
20211208084227 24 360 0.0 0.0 0.00 0.00 0.00 76 1023.5
20211208083227 24 360 0.0 0.0 0.00 0.00 0.00 74 1023.6
20211208082327 24 360 0.0 0.0 0.00 0.00 0.00 78 1023.7
20211208082229 24 360 0.0 0.0 0.00 0.00 0.00 79 1023.6
20211208081229 24 360 0.0 0.0 0.00 0.00 0.00 78 1023.4
20211208080230 24 360 0.0 0.0 0.00 0.00 0.00 76 1023.4
20211208075228 24 360 0.0 0.0 0.00 0.00 0.00 75 1023.4
20211208074228 24 360 0.0 0.0 0.00 0.00 0.00 71 1023.2
20211208073228 24 360 0.0 0.0 0.00 0.00 0.00 70 1023.3
20211208072228 25 360 0.0 0.0 0.00 0.00 0.00 71 1023.3
20211208071229 25 360 0.0 0.0 0.00 0.00 0.00 69 1023.4
20211208070228 25 360 0.0 0.0 0.00 0.00 0.00 68 1023.3
20211208065327 25 360 0.0 0.0 0.00 0.00 0.00 67 1023.4
20211208064328 25 360 0.0 0.0 0.00 0.00 0.00 66 1023.4
20211208063427 25 315 0.0 0.0 0.00 0.00 0.00 66 1023.2
20211208062427 25 315 0.0 0.0 0.00 0.00 0.00 67 1023.2
20211208061427 25 315 0.0 0.0 0.00 0.00 0.00 68 1023.0
20211208060429 26 315 0.0 0.0 0.00 0.00 0.00 67 1022.9
20211208055527 25 292 0.0 0.0 0.00 0.01 0.00 67 1023.0
20211208054529 25 292 0.0 0.0 0.00 0.01 0.00 70 1022.9
20211208053528 25 292 0.0 0.0 0.00 0.01 0.00 71 1022.9
20211208052527 25 292 0.0 0.0 0.00 0.02 0.00 71 1023.0
20211208051529 25 292 0.0 0.0 0.00 0.03 0.00 69 1022.9
20211208050627 26 292 0.0 0.0 0.00 0.05 0.00 69 1022.9
20211208045634 25 292 0.0 0.0 0.00 0.11 0.08 71 1022.7
20211208044634 25 292 0.0 0.0 0.00 0.12 0.08 71 1022.7
20211208043633 25 292 0.0 0.0 0.00 0.13 0.08 69 1022.8
20211208042635 26 292 0.0 0.0 0.00 0.14 0.08 68 1022.8
20211208041635 26 292 0.0 0.0 0.00 0.14 0.08 68 1023.0
20211208040735 26 292 0.0 0.0 0.00 0.14 0.08 68 1023.0
20211208035736 26 292 0.0 0.0 0.00 0.15 0.08 65 1022.8
20211208034734 26 292 0.0 0.0 0.00 0.15 0.08 62 1022.8
20211208033733 27 292 0.0 0.0 0.00 0.15 0.08 60 1022.6
20211208032735 27 315 1.0 2.0 0.00 0.15 0.08 62 1022.7
20211208031734 27 315 0.0 0.0 0.00 0.16 0.08 58 1022.8
20211208030733 27 270 1.0 2.0 0.00 0.16 0.08 56 1022.5
20211208025734 28 270 0.0 1.0 0.00 0.17 0.08 57 1022.5
20211208024735 29 270 0.0 0.0 0.00 0.17 0.08 53 1022.4
20211208023752 29 333 1.0 4.0 0.00 0.18 0.08 52 1022.2
20211208022734 29 270 1.0 3.0 0.00 0.19 0.08 52 1022.2
20211208021736 29 315 0.0 1.0 0.00 0.19 0.08 52 1022.1
20211208020735 29 315 0.0 2.0 0.00 0.20 0.08 52 1022.0
20211208015733 29 315 0.0 1.0 0.00 0.20 0.08 53 1021.9
20211208014736 29 337 0.0 0.0 0.00 0.20 0.08 56 1021.8
20211208013734 29 337 0.0 0.0 0.00 0.21 0.08 54 1021.7
20211208012735 30 337 0.0 1.0 0.00 0.21 0.08 51 1021.6
20211208011734 30 332 0.0 1.0 0.00 0.21 0.08 51 1021.7
20211208010734 30 315 0.0 0.0 0.00 0.21 0.08 48 1021.7
20211208005735 31 247 0.0 1.0 0.00 0.21 0.08 47 1021.7
20211208004734 31 326 1.0 3.0 0.00 0.21 0.08 46 1021.7
20211208003735 31 316 2.0 3.0 0.00 0.21 0.08 45 1021.7
20211208002835 31 292 1.0 2.0 0.00 0.21 0.08 45 1021.6
20211208001933 31 329 5.0 7.0 0.00 0.21 0.08 47 1021.7
20211208000935 31 19 2.0 5.0 0.00 0.21 0.08 47 1021.5
20211207235935 31 303 2.0 4.0 0.00 0.21 0.08 48 1021.3
20211207234951 31 292 1.0 4.0 0.00 0.21 0.08 48 1021.4
20211207234035 31 323 2.0 3.0 0.00 0.21 0.08 48 1021.2
20211207233952 31 302 2.0 4.0 0.00 0.21 0.08 49 1021.2
20211207233035 31 303 2.0 5.0 0.00 0.21 0.08 49 1021.2
20211207232034 31 304 2.0 4.0 0.00 0.21 0.08 49 1021.1
20211207231133 31 283 2.0 4.0 0.00 0.21 0.08 49 1020.9
20211207230136 31 314 4.0 7.0 0.00 0.21 0.08 50 1020.7
20211207225133 31 345 0.0 2.0 0.00 0.21 0.08 52 1020.5
20211207224134 31 321 1.0 2.0 0.00 0.21 0.08 51 1020.4
20211207223133 31 357 1.0 3.0 0.00 0.21 0.08 50 1020.4
20211207222135 31 315 0.0 1.0 0.00 0.21 0.08 52 1020.2
20211207222036 31 315 0.0 2.0 0.00 0.21 0.08 52 1020.1